sensor_id;sensor_type;location;lat;lon;timestamp;pressure;altitude;pressure_sealevel;temperature;humidity
68525;BME280;55524;51.380;13.372;2022-10-31T00:01:45;100970.78;;;12.79;88.59
68525;BME280;55524;51.380;13.372;2022-10-31T00:04:11;100960.38;;;12.73;88.87
68525;BME280;55524;51.380;13.372;2022-10-31T00:06:38;100970.97;;;12.73;88.94
68525;BME280;55524;51.380;13.372;2022-10-31T00:09:05;100971.84;;;12.73;88.71
68525;BME280;55524;51.380;13.372;2022-10-31T00:11:32;100967.50;;;12.71;88.51
68525;BME280;55524;51.380;13.372;2022-10-31T00:13:59;100973.72;;;12.71;88.39
68525;BME280;55524;51.380;13.372;2022-10-31T00:16:27;100976.50;;;12.67;88.92
68525;BME280;55524;51.380;13.372;2022-10-31T00:18:59;100973.63;;;12.73;88.58
68525;BME280;55524;51.380;13.372;2022-10-31T00:21:26;100970.69;;;12.80;87.48
68525;BME280;55524;51.380;13.372;2022-10-31T00:23:57;100980.34;;;12.83;87.96
68525;BME280;55524;51.380;13.372;2022-10-31T00:26:26;100976.97;;;12.78;87.85
68525;BME280;55524;51.380;13.372;2022-10-31T00:28:52;100976.28;;;12.73;88.41
68525;BME280;55524;51.380;13.372;2022-10-31T00:31:19;100979.00;;;12.71;88.27
68525;BME280;55524;51.380;13.372;2022-10-31T00:33:45;100979.88;;;12.72;88.54
68525;BME280;55524;51.380;13.372;2022-10-31T00:36:15;100983.31;;;12.74;88.19
68525;BME280;55524;51.380;13.372;2022-10-31T00:38:42;100990.59;;;12.69;88.05
68525;BME280;55524;51.380;13.372;2022-10-31T00:41:10;100986.31;;;12.65;88.00
68525;BME280;55524;51.380;13.372;2022-10-31T00:43:37;100989.44;;;12.52;88.51
68525;BME280;55524;51.380;13.372;2022-10-31T00:46:03;100996.56;;;12.50;87.89
68525;BME280;55524;51.380;13.372;2022-10-31T00:48:30;100993.03;;;12.50;87.92
68525;BME280;55524;51.380;13.372;2022-10-31T00:50:59;100991.25;;;12.50;88.07
68525;BME280;55524;51.380;13.372;2022-10-31T00:53:25;100994.25;;;12.41;88.63
68525;BME280;55524;51.380;13.372;2022-10-31T00:55:51;100994.19;;;12.43;88.42
68525;BME280;55524;51.380;13.372;2022-10-31T00:58:18;100989.13;;;12.37;88.98
68525;BME280;55524;51.380;13.372;2022-10-31T01:00:46;100998.28;;;12.28;89.66
68525;BME280;55524;51.380;13.372;2022-10-31T01:03:21;100999.50;;;12.18;89.48
68525;BME280;55524;51.380;13.372;2022-10-31T01:05:56;100999.72;;;12.12;90.48
68525;BME280;55524;51.380;13.372;2022-10-31T01:08:23;100997.28;;;12.05;90.06
68525;BME280;55524;51.380;13.372;2022-10-31T01:11:05;101004.63;;;11.97;91.06
68525;BME280;55524;51.380;13.372;2022-10-31T01:13:32;101008.50;;;11.87;92.39
68525;BME280;55524;51.380;13.372;2022-10-31T01:15:59;101003.41;;;11.79;92.08
68525;BME280;55524;51.380;13.372;2022-10-31T01:18:27;101008.94;;;11.73;93.06
68525;BME280;55524;51.380;13.372;2022-10-31T01:23:38;101006.84;;;11.56;94.29
68525;BME280;55524;51.380;13.372;2022-10-31T01:26:14;101009.91;;;11.43;94.20
68525;BME280;55524;51.380;13.372;2022-10-31T01:28:49;101015.75;;;11.26;94.90
68525;BME280;55524;51.380;13.372;2022-10-31T01:31:18;101014.34;;;11.14;96.28
68525;BME280;55524;51.380;13.372;2022-10-31T01:33:45;101010.09;;;11.08;96.72
68525;BME280;55524;51.380;13.372;2022-10-31T01:38:48;101020.00;;;11.02;98.04
68525;BME280;55524;51.380;13.372;2022-10-31T01:41:25;101025.38;;;10.99;98.10
68525;BME280;55524;51.380;13.372;2022-10-31T01:44:44;101017.66;;;10.91;98.72
68525;BME280;55524;51.380;13.372;2022-10-31T01:46:53;101020.53;;;10.83;100.00
68525;BME280;55524;51.380;13.372;2022-10-31T01:49:46;101016.22;;;10.81;99.50
68525;BME280;55524;51.380;13.372;2022-10-31T01:52:37;101018.16;;;10.74;99.64
68525;BME280;55524;51.380;13.372;2022-10-31T01:57:45;101024.66;;;10.63;100.00
68525;BME280;55524;51.380;13.372;2022-10-31T02:00:16;101025.59;;;10.62;100.00
68525;BME280;55524;51.380;13.372;2022-10-31T02:02:45;101029.16;;;10.59;100.00
68525;BME280;55524;51.380;13.372;2022-10-31T02:05:24;101023.09;;;10.55;100.00
68525;BME280;55524;51.380;13.372;2022-10-31T02:08:06;101026.69;;;10.53;100.00
68525;BME280;55524;51.380;13.372;2022-10-31T02:10:36;101037.25;;;10.53;100.00
68525;BME280;55524;51.380;13.372;2022-10-31T02:13:07;101032.75;;;10.56;100.00
68525;BME280;55524;51.380;13.372;2022-10-31T02:15:36;101034.59;;;10.54;100.00
68525;BME280;55524;51.380;13.372;2022-10-31T02:18:04;101042.59;;;10.51;100.00
68525;BME280;55524;51.380;13.372;2022-10-31T02:29:35;101036.66;;;10.43;100.00
68525;BME280;55524;51.380;13.372;2022-10-31T02:37:49;101037.28;;;10.19;100.00
68525;BME280;55524;51.380;13.372;2022-10-31T02:40:30;101041.81;;;10.14;100.00
68525;BME280;55524;51.380;13.372;2022-10-31T02:43:14;101048.19;;;10.05;100.00
68525;BME280;55524;51.380;13.372;2022-10-31T02:46:29;101049.16;;;10.02;100.00
68525;BME280;55524;51.380;13.372;2022-10-31T02:49:05;101047.50;;;9.97;100.00
68525;BME280;55524;51.380;13.372;2022-10-31T02:51:34;101041.44;;;9.93;100.00
68525;BME280;55524;51.380;13.372;2022-10-31T02:54:01;101042.41;;;9.91;100.00
68525;BME280;55524;51.380;13.372;2022-10-31T02:56:27;101046.84;;;9.89;100.00
68525;BME280;55524;51.380;13.372;2022-10-31T02:58:59;101051.25;;;9.88;100.00
68525;BME280;55524;51.380;13.372;2022-10-31T03:02:01;101040.63;;;9.90;100.00
68525;BME280;55524;51.380;13.372;2022-10-31T03:07:33;101052.34;;;9.79;100.00
68525;BME280;55524;51.380;13.372;2022-10-31T03:13:02;101048.13;;;9.72;100.00
68525;BME280;55524;51.380;13.372;2022-10-31T03:15:40;101052.66;;;9.66;100.00
68525;BME280;55524;51.380;13.372;2022-10-31T03:18:25;101064.19;;;9.63;100.00
68525;BME280;55524;51.380;13.372;2022-10-31T03:21:10;101064.25;;;9.60;100.00
68525;BME280;55524;51.380;13.372;2022-10-31T03:23:38;101075.78;;;9.56;100.00
68525;BME280;55524;51.380;13.372;2022-10-31T03:26:07;101070.59;;;9.51;100.00
68525;BME280;55524;51.380;13.372;2022-10-31T03:28:40;101068.97;;;9.46;100.00
68525;BME280;55524;51.380;13.372;2022-10-31T03:31:08;101072.56;;;9.43;100.00
68525;BME280;55524;51.380;13.372;2022-10-31T03:33:37;101075.19;;;9.43;100.00
68525;BME280;55524;51.380;13.372;2022-10-31T03:36:09;101075.22;;;9.42;100.00
68525;BME280;55524;51.380;13.372;2022-10-31T03:38:36;101078.81;;;9.38;100.00
68525;BME280;55524;51.380;13.372;2022-10-31T03:41:05;101089.41;;;9.36;100.00
68525;BME280;55524;51.380;13.372;2022-10-31T03:43:38;101086.00;;;9.31;100.00
68525;BME280;55524;51.380;13.372;2022-10-31T03:46:07;101088.72;;;9.26;100.00
68525;BME280;55524;51.380;13.372;2022-10-31T03:48:34;101096.78;;;9.20;100.00
68525;BME280;55524;51.380;13.372;2022-10-31T03:51:08;101094.25;;;9.16;100.00
68525;BME280;55524;51.380;13.372;2022-10-31T03:53:52;101096.09;;;9.10;100.00
68525;BME280;55524;51.380;13.372;2022-10-31T04:01:36;101092.78;;;9.01;100.00
68525;BME280;55524;51.380;13.372;2022-10-31T04:04:06;101096.34;;;8.98;100.00
68525;BME280;55524;51.380;13.372;2022-10-31T04:06:35;101092.03;;;8.94;100.00
68525;BME280;55524;51.380;13.372;2022-10-31T04:09:05;101092.06;;;8.93;100.00
68525;BME280;55524;51.380;13.372;2022-10-31T04:11:40;101095.69;;;8.89;100.00
68525;BME280;55524;51.380;13.372;2022-10-31T04:14:08;101096.59;;;8.86;100.00
68525;BME280;55524;51.380;13.372;2022-10-31T04:16:36;101098.41;;;8.84;100.00
68525;BME280;55524;51.380;13.372;2022-10-31T04:19:02;101096.69;;;8.81;100.00
68525;BME280;55524;51.380;13.372;2022-10-31T04:21:30;101093.19;;;8.81;100.00
68525;BME280;55524;51.380;13.372;2022-10-31T04:23:57;101094.97;;;8.79;100.00
68525;BME280;55524;51.380;13.372;2022-10-31T04:26:23;101094.16;;;8.77;100.00
68525;BME280;55524;51.380;13.372;2022-10-31T04:28:50;101097.69;;;8.74;100.00
68525;BME280;55524;51.380;13.372;2022-10-31T04:31:16;101096.94;;;8.69;100.00
68525;BME280;55524;51.380;13.372;2022-10-31T04:33:42;101087.28;;;8.68;100.00
68525;BME280;55524;51.380;13.372;2022-10-31T04:36:09;101088.22;;;8.66;100.00
68525;BME280;55524;51.380;13.372;2022-10-31T04:38:35;101096.16;;;8.64;100.00
68525;BME280;55524;51.380;13.372;2022-10-31T04:41:01;101090.03;;;8.62;100.00
68525;BME280;55524;51.380;13.372;2022-10-31T04:43:27;101103.25;;;8.59;100.00
68525;BME280;55524;51.380;13.372;2022-10-31T04:45:54;101097.94;;;8.62;100.00
68525;BME280;55524;51.380;13.372;2022-10-31T04:48:20;101100.69;;;8.56;100.00
68525;BME280;55524;51.380;13.372;2022-10-31T04:50:46;101105.97;;;8.54;100.00
68525;BME280;55524;51.380;13.372;2022-10-31T04:53:12;101102.53;;;8.52;100.00
68525;BME280;55524;51.380;13.372;2022-10-31T04:55:38;101105.25;;;8.46;100.00
68525;BME280;55524;51.380;13.372;2022-10-31T04:58:05;101109.66;;;8.46;100.00
68525;BME280;55524;51.380;13.372;2022-10-31T05:00:31;101111.41;;;8.45;100.00
68525;BME280;55524;51.380;13.372;2022-10-31T05:02:58;101108.84;;;8.42;100.00
68525;BME280;55524;51.380;13.372;2022-10-31T05:05:27;101107.03;;;8.46;100.00
68525;BME280;55524;51.380;13.372;2022-10-31T05:07:54;101110.56;;;8.45;100.00
68525;BME280;55524;51.380;13.372;2022-10-31T05:10:23;101109.69;;;8.44;100.00
68525;BME280;55524;51.380;13.372;2022-10-31T05:12:55;101110.56;;;8.43;100.00
68525;BME280;55524;51.380;13.372;2022-10-31T05:15:23;101112.38;;;8.41;100.00
68525;BME280;55524;51.380;13.372;2022-10-31T05:17:50;101110.69;;;8.37;100.00
68525;BME280;55524;51.380;13.372;2022-10-31T05:20:19;101109.81;;;8.35;100.00
68525;BME280;55524;51.380;13.372;2022-10-31T05:22:56;101111.56;;;8.36;100.00
68525;BME280;55524;51.380;13.372;2022-10-31T05:25:24;101116.91;;;8.30;100.00
68525;BME280;55524;51.380;13.372;2022-10-31T05:27:53;101119.56;;;8.30;100.00
68525;BME280;55524;51.380;13.372;2022-10-31T05:30:25;101122.22;;;8.28;100.00
68525;BME280;55524;51.380;13.372;2022-10-31T05:32:52;101115.97;;;8.34;100.00
68525;BME280;55524;51.380;13.372;2022-10-31T05:35:20;101119.50;;;8.31;100.00
68525;BME280;55524;51.380;13.372;2022-10-31T05:37:47;101116.09;;;8.28;100.00
68525;BME280;55524;51.380;13.372;2022-10-31T05:40:15;101127.63;;;8.21;100.00
68525;BME280;55524;51.380;13.372;2022-10-31T05:42:43;101135.59;;;8.16;100.00
68525;BME280;55524;51.380;13.372;2022-10-31T05:45:11;101128.69;;;8.09;100.00
68525;BME280;55524;51.380;13.372;2022-10-31T05:47:38;101133.94;;;8.07;100.00
68525;BME280;55524;51.380;13.372;2022-10-31T05:50:05;101132.22;;;8.08;100.00
68525;BME280;55524;51.380;13.372;2022-10-31T05:52:32;101138.34;;;8.08;100.00
68525;BME280;55524;51.380;13.372;2022-10-31T05:54:58;101135.63;;;8.13;100.00
68525;BME280;55524;51.380;13.372;2022-10-31T05:57:25;101135.56;;;8.18;100.00
68525;BME280;55524;51.380;13.372;2022-10-31T05:59:54;101139.91;;;8.19;100.00
68525;BME280;55524;51.380;13.372;2022-10-31T06:02:20;101143.47;;;8.18;100.00
68525;BME280;55524;51.380;13.372;2022-10-31T06:04:47;101140.78;;;8.21;100.00
68525;BME280;55524;51.380;13.372;2022-10-31T06:07:13;101143.34;;;8.25;100.00
68525;BME280;55524;51.380;13.372;2022-10-31T06:09:39;101146.75;;;8.32;100.00
68525;BME280;55524;51.380;13.372;2022-10-31T06:12:05;101146.72;;;8.33;100.00
68525;BME280;55524;51.380;13.372;2022-10-31T06:14:32;101142.25;;;8.38;100.00
68525;BME280;55524;51.380;13.372;2022-10-31T06:16:58;101150.06;;;8.43;100.00
68525;BME280;55524;51.380;13.372;2022-10-31T06:19:24;101148.28;;;8.45;100.00
68525;BME280;55524;51.380;13.372;2022-10-31T06:21:51;101144.72;;;8.49;100.00
68525;BME280;55524;51.380;13.372;2022-10-31T06:24:17;101151.66;;;8.53;100.00
68525;BME280;55524;51.380;13.372;2022-10-31T06:26:43;101155.19;;;8.52;100.00
68525;BME280;55524;51.380;13.372;2022-10-31T06:29:10;101151.63;;;8.56;100.00
68525;BME280;55524;51.380;13.372;2022-10-31T06:31:36;101151.53;;;8.61;100.00
68525;BME280;55524;51.380;13.372;2022-10-31T06:34:02;101154.94;;;8.68;100.00
68525;BME280;55524;51.380;13.372;2022-10-31T06:36:28;101159.16;;;8.75;100.00
68525;BME280;55524;51.380;13.372;2022-10-31T06:38:54;101162.53;;;8.84;100.00
68525;BME280;55524;51.380;13.372;2022-10-31T06:41:21;101155.19;;;9.00;100.00
68525;BME280;55524;51.380;13.372;2022-10-31T06:43:47;101157.53;;;9.14;100.00
68525;BME280;55524;51.380;13.372;2022-10-31T06:46:13;101164.25;;;9.30;100.00
68525;BME280;55524;51.380;13.372;2022-10-31T06:48:49;101168.38;;;9.44;100.00
68525;BME280;55524;51.380;13.372;2022-10-31T06:51:15;101175.22;;;9.52;100.00
68525;BME280;55524;51.380;13.372;2022-10-31T06:53:41;101168.88;;;9.63;100.00
68525;BME280;55524;51.380;13.372;2022-10-31T06:56:08;101170.31;;;9.76;100.00
68525;BME280;55524;51.380;13.372;2022-10-31T06:58:34;101170.97;;;9.87;100.00
68525;BME280;55524;51.380;13.372;2022-10-31T07:01:01;101178.56;;;10.01;100.00
68525;BME280;55524;51.380;13.372;2022-10-31T07:03:27;101176.53;;;10.14;100.00
68525;BME280;55524;51.380;13.372;2022-10-31T07:05:55;101181.38;;;10.32;100.00
68525;BME280;55524;51.380;13.372;2022-10-31T07:08:22;101178.63;;;11.03;100.00
68525;BME280;55524;51.380;13.372;2022-10-31T07:10:54;101167.38;;;12.43;96.69
68525;BME280;55524;51.380;13.372;2022-10-31T07:13:21;101153.53;;;13.59;87.07
68525;BME280;55524;51.380;13.372;2022-10-31T07:15:58;101162.94;;;13.67;85.09
68525;BME280;55524;51.380;13.372;2022-10-31T07:18:28;101160.97;;;13.72;84.50
68525;BME280;55524;51.380;13.372;2022-10-31T07:20:55;101170.09;;;13.65;84.67
68525;BME280;55524;51.380;13.372;2022-10-31T07:23:22;101180.97;;;13.11;89.25
68525;BME280;55524;51.380;13.372;2022-10-31T07:25:48;101181.22;;;12.78;91.83
68525;BME280;55524;51.380;13.372;2022-10-31T07:28:20;101187.59;;;13.47;89.99
68525;BME280;55524;51.380;13.372;2022-10-31T07:30:50;101168.03;;;14.82;82.48
68525;BME280;55524;51.380;13.372;2022-10-31T07:33:18;101154.69;;;15.81;76.59
68525;BME280;55524;51.380;13.372;2022-10-31T07:35:46;101143.53;;;16.28;74.06
68525;BME280;55524;51.380;13.372;2022-10-31T07:38:23;101122.50;;;17.24;69.87
68525;BME280;55524;51.380;13.372;2022-10-31T07:40:54;101089.94;;;17.97;65.62
68525;BME280;55524;51.380;13.372;2022-10-31T07:43:21;101082.59;;;18.16;64.02
68525;BME280;55524;51.380;13.372;2022-10-31T07:45:53;101088.72;;;18.18;64.26
68525;BME280;55524;51.380;13.372;2022-10-31T07:48:20;101099.22;;;18.21;64.46
68525;BME280;55524;51.380;13.372;2022-10-31T07:50:46;101086.31;;;18.74;62.81
68525;BME280;55524;51.380;13.372;2022-10-31T07:53:14;101084.41;;;19.04;62.14
68525;BME280;55524;51.380;13.372;2022-10-31T07:55:40;101065.16;;;19.40;60.41
68525;BME280;55524;51.380;13.372;2022-10-31T08:00:38;101080.47;;;19.38;60.82
68525;BME280;55524;51.380;13.372;2022-10-31T08:03:09;101097.78;;;19.04;62.54
68525;BME280;55524;51.380;13.372;2022-10-31T08:05:37;101097.50;;;19.23;62.09
68525;BME280;55524;51.380;13.372;2022-10-31T08:08:04;101121.84;;;19.06;63.73
68525;BME280;55524;51.380;13.372;2022-10-31T08:10:32;101116.38;;;18.93;63.65
68525;BME280;55524;51.380;13.372;2022-10-31T08:13:08;101117.03;;;18.82;63.91
68525;BME280;55524;51.380;13.372;2022-10-31T08:15:35;101125.38;;;18.62;64.77
68525;BME280;55524;51.380;13.372;2022-10-31T08:21:21;101147.31;;;18.23;67.77
68525;BME280;55524;51.380;13.372;2022-10-31T08:23:50;101140.03;;;18.25;67.11
68525;BME280;55524;51.380;13.372;2022-10-31T08:26:16;101168.19;;;17.19;71.84
68525;BME280;55524;51.380;13.372;2022-10-31T08:28:45;101193.88;;;16.34;77.88
68525;BME280;55524;51.380;13.372;2022-10-31T08:31:12;101184.69;;;16.22;79.22
68525;BME280;55524;51.380;13.372;2022-10-31T08:34:19;101186.00;;;16.13;79.08
68525;BME280;55524;51.380;13.372;2022-10-31T08:37:05;101198.63;;;16.10;80.54
68525;BME280;55524;51.380;13.372;2022-10-31T08:39:39;101184.22;;;16.31;79.88
68525;BME280;55524;51.380;13.372;2022-10-31T08:42:05;101193.25;;;16.29;80.30
68525;BME280;55524;51.380;13.372;2022-10-31T08:44:31;101183.16;;;16.35;80.70
68525;BME280;55524;51.380;13.372;2022-10-31T08:46:58;101178.47;;;16.58;78.66
68525;BME280;55524;51.380;13.372;2022-10-31T08:49:44;101164.41;;;16.54;77.00
68525;BME280;55524;51.380;13.372;2022-10-31T08:52:23;101176.41;;;16.45;77.04
68525;BME280;55524;51.380;13.372;2022-10-31T08:54:51;101166.84;;;16.59;77.30
68525;BME280;55524;51.380;13.372;2022-10-31T08:57:17;101168.91;;;16.71;76.59
68525;BME280;55524;51.380;13.372;2022-10-31T08:59:43;101158.84;;;16.93;75.48
68525;BME280;55524;51.380;13.372;2022-10-31T09:05:37;101166.72;;;16.96;75.75
68525;BME280;55524;51.380;13.372;2022-10-31T09:08:05;101154.69;;;17.05;75.28
68525;BME280;55524;51.380;13.372;2022-10-31T09:10:32;101156.53;;;17.20;74.42
68525;BME280;55524;51.380;13.372;2022-10-31T09:13:19;101163.00;;;17.16;75.35
68525;BME280;55524;51.380;13.372;2022-10-31T09:15:49;101164.47;;;17.22;75.67
68525;BME280;55524;51.380;13.372;2022-10-31T09:18:18;101157.50;;;17.19;75.85
68525;BME280;55524;51.380;13.372;2022-10-31T09:20:46;101167.66;;;17.29;75.50
68525;BME280;55524;51.380;13.372;2022-10-31T09:23:14;101157.44;;;17.37;74.91
68525;BME280;55524;51.380;13.372;2022-10-31T09:25:41;101163.88;;;17.33;76.07
68525;BME280;55524;51.380;13.372;2022-10-31T09:28:11;101166.50;;;17.34;75.82
68525;BME280;55524;51.380;13.372;2022-10-31T09:30:55;101164.44;;;17.39;76.76
68525;BME280;55524;51.380;13.372;2022-10-31T09:33:22;101170.28;;;17.46;76.89
68525;BME280;55524;51.380;13.372;2022-10-31T09:35:48;101170.81;;;17.53;77.36
68525;BME280;55524;51.380;13.372;2022-10-31T09:38:17;101174.44;;;17.52;76.93
68525;BME280;55524;51.380;13.372;2022-10-31T09:49:51;101166.13;;;18.05;76.14
68525;BME280;55524;51.380;13.372;2022-10-31T09:52:30;101168.31;;;17.99;75.55
68525;BME280;55524;51.380;13.372;2022-10-31T09:55:14;101175.97;;;18.05;75.51
68525;BME280;55524;51.380;13.372;2022-10-31T09:57:44;101182.38;;;18.18;75.60
68525;BME280;55524;51.380;13.372;2022-10-31T10:00:17;101176.59;;;18.10;76.11
68525;BME280;55524;51.380;13.372;2022-10-31T10:05:51;101167.94;;;18.21;75.10
68525;BME280;55524;51.380;13.372;2022-10-31T10:08:23;101158.78;;;18.09;75.59
68525;BME280;55524;51.380;13.372;2022-10-31T10:22:36;101142.66;;;18.86;72.17
68525;BME280;55524;51.380;13.372;2022-10-31T10:25:16;101151.91;;;18.51;73.04
68525;BME280;55524;51.380;13.372;2022-10-31T10:28:10;101140.66;;;18.90;72.00
68525;BME280;55524;51.380;13.372;2022-10-31T10:31:01;101155.16;;;18.72;73.76
68525;BME280;55524;51.380;13.372;2022-10-31T10:33:35;101146.31;;;18.85;72.90
68525;BME280;55524;51.380;13.372;2022-10-31T10:36:14;101146.03;;;18.90;72.40
68525;BME280;55524;51.380;13.372;2022-10-31T10:41:43;101139.03;;;18.87;72.96
68525;BME280;55524;51.380;13.372;2022-10-31T10:44:10;101129.69;;;19.09;71.73
68525;BME280;55524;51.380;13.372;2022-10-31T10:46:48;101126.03;;;19.10;71.99
68525;BME280;55524;51.380;13.372;2022-10-31T10:49:48;101124.72;;;19.17;71.85
68525;BME280;55524;51.380;13.372;2022-10-31T10:52:30;101123.25;;;18.97;72.49
68525;BME280;55524;51.380;13.372;2022-10-31T10:58:06;101120.22;;;19.17;72.44
68525;BME280;55524;51.380;13.372;2022-10-31T11:00:42;101113.28;;;19.28;73.23
68525;BME280;55524;51.380;13.372;2022-10-31T11:03:16;101111.94;;;19.35;71.76
68525;BME280;55524;51.380;13.372;2022-10-31T11:05:57;101105.34;;;19.12;71.49
68525;BME280;55524;51.380;13.372;2022-10-31T11:08:31;101117.03;;;19.11;72.01
68525;BME280;55524;51.380;13.372;2022-10-31T11:14:11;101118.56;;;19.15;73.28
68525;BME280;55524;51.380;13.372;2022-10-31T11:16:43;101103.16;;;19.19;72.11
68525;BME280;55524;51.380;13.372;2022-10-31T11:21:50;101113.69;;;19.07;73.04
68525;BME280;55524;51.380;13.372;2022-10-31T11:24:23;101105.94;;;19.17;72.32
68525;BME280;55524;51.380;13.372;2022-10-31T11:27:13;101102.59;;;18.99;72.73
68525;BME280;55524;51.380;13.372;2022-10-31T11:29:43;101111.69;;;18.97;73.76
68525;BME280;55524;51.380;13.372;2022-10-31T11:32:29;101108.50;;;19.04;74.95
68525;BME280;55524;51.380;13.372;2022-10-31T11:35:16;101092.16;;;19.09;72.92
68525;BME280;55524;51.380;13.372;2022-10-31T11:37:47;101105.56;;;19.09;74.66
68525;BME280;55524;51.380;13.372;2022-10-31T11:40:37;101095.78;;;19.08;73.78
68525;BME280;55524;51.380;13.372;2022-10-31T11:43:20;101097.03;;;19.02;74.04
68525;BME280;55524;51.380;13.372;2022-10-31T11:45:47;101101.53;;;19.02;74.75
68525;BME280;55524;51.380;13.372;2022-10-31T11:48:35;101100.19;;;19.23;73.62
68525;BME280;55524;51.380;13.372;2022-10-31T11:51:03;101088.53;;;19.10;72.87
68525;BME280;55524;51.380;13.372;2022-10-31T11:53:33;101091.59;;;19.18;74.17
68525;BME280;55524;51.380;13.372;2022-10-31T11:56:09;101092.84;;;19.12;74.72
68525;BME280;55524;51.380;13.372;2022-10-31T11:58:39;101082.13;;;19.12;73.40
68525;BME280;55524;51.380;13.372;2022-10-31T12:01:08;101077.63;;;19.13;73.15
68525;BME280;55524;51.380;13.372;2022-10-31T12:06:41;101076.25;;;19.20;73.72
68525;BME280;55524;51.380;13.372;2022-10-31T12:20:30;101068.13;;;19.07;73.05
68525;BME280;55524;51.380;13.372;2022-10-31T12:35:09;101032.91;;;19.55;71.56
68525;BME280;55524;51.380;13.372;2022-10-31T12:37:46;101035.53;;;19.42;71.17
68525;BME280;55524;51.380;13.372;2022-10-31T12:46:00;101014.63;;;19.88;69.56
68525;BME280;55524;51.380;13.372;2022-10-31T12:54:47;101006.63;;;20.14;68.62
68525;BME280;55524;51.380;13.372;2022-10-31T12:57:34;101014.28;;;20.20;69.43
68525;BME280;55524;51.380;13.372;2022-10-31T13:06:16;101026.59;;;20.10;71.13
68525;BME280;55524;51.380;13.372;2022-10-31T13:09:02;101002.22;;;20.00;68.51
68525;BME280;55524;51.380;13.372;2022-10-31T13:12:01;101004.53;;;20.45;69.29
68525;BME280;55524;51.380;13.372;2022-10-31T13:14:53;101004.34;;;20.60;69.50
68525;BME280;55524;51.380;13.372;2022-10-31T13:23:10;100991.66;;;20.50;68.10
68525;BME280;55524;51.380;13.372;2022-10-31T13:25:51;100986.06;;;20.27;68.00
68525;BME280;55524;51.380;13.372;2022-10-31T13:31:03;100981.78;;;20.50;68.25
68525;BME280;55524;51.380;13.372;2022-10-31T13:33:37;100976.59;;;20.47;68.03
68525;BME280;55524;51.380;13.372;2022-10-31T16:40:54;100919.63;;;14.04;100.00
68525;BME280;55524;51.380;13.372;2022-10-31T16:43:41;100913.66;;;13.99;100.00
68525;BME280;55524;51.380;13.372;2022-10-31T16:46:27;100921.03;;;13.92;100.00
68525;BME280;55524;51.380;13.372;2022-10-31T16:49:20;100922.22;;;13.85;100.00
68525;BME280;55524;51.380;13.372;2022-10-31T16:52:17;100911.00;;;13.78;100.00
68525;BME280;55524;51.380;13.372;2022-10-31T16:55:24;100903.09;;;13.77;100.00
68525;BME280;55524;51.380;13.372;2022-10-31T16:58:13;100899.66;;;13.75;100.00
68525;BME280;55524;51.380;13.372;2022-10-31T17:00:41;100898.91;;;13.71;100.00
68525;BME280;55524;51.380;13.372;2022-10-31T17:03:08;100894.47;;;13.72;100.00
68525;BME280;55524;51.380;13.372;2022-10-31T17:06:22;100897.19;;;13.70;100.00
68525;BME280;55524;51.380;13.372;2022-10-31T17:08:55;100891.81;;;13.72;100.00
68525;BME280;55524;51.380;13.372;2022-10-31T17:11:29;100890.88;;;13.73;100.00
68525;BME280;55524;51.380;13.372;2022-10-31T17:14:04;100888.28;;;13.71;100.00
68525;BME280;55524;51.380;13.372;2022-10-31T17:16:50;100885.69;;;13.70;100.00
68525;BME280;55524;51.380;13.372;2022-10-31T17:19:40;100886.81;;;13.64;100.00
68525;BME280;55524;51.380;13.372;2022-10-31T17:22:27;100882.69;;;13.57;100.00
68525;BME280;55524;51.380;13.372;2022-10-31T17:25:14;100886.50;;;13.51;100.00
68525;BME280;55524;51.380;13.372;2022-10-31T17:28:00;100880.63;;;13.43;100.00
68525;BME280;55524;51.380;13.372;2022-10-31T17:33:35;100882.88;;;13.32;100.00
68525;BME280;55524;51.380;13.372;2022-10-31T17:36:28;100890.28;;;13.24;100.00
68525;BME280;55524;51.380;13.372;2022-10-31T17:39:37;100881.56;;;13.20;100.00
68525;BME280;55524;51.380;13.372;2022-10-31T17:45:36;100877.88;;;13.67;100.00
68525;BME280;55524;51.380;13.372;2022-10-31T17:48:34;100869.41;;;13.77;100.00
68525;BME280;55524;51.380;13.372;2022-10-31T17:51:24;100869.22;;;13.82;100.00
68525;BME280;55524;51.380;13.372;2022-10-31T17:54:26;100874.81;;;13.76;100.00
68525;BME280;55524;51.380;13.372;2022-10-31T17:57:48;100876.00;;;13.69;100.00
68525;BME280;55524;51.380;13.372;2022-10-31T18:00:37;100879.34;;;13.74;100.00
68525;BME280;55524;51.380;13.372;2022-10-31T18:06:38;100875.75;;;13.75;100.00
68525;BME280;55524;51.380;13.372;2022-10-31T18:09:47;100880.13;;;13.76;100.00
68525;BME280;55524;51.380;13.372;2022-10-31T18:13:03;100873.34;;;13.69;100.00
68525;BME280;55524;51.380;13.372;2022-10-31T18:15:59;100875.25;;;13.65;100.00
68525;BME280;55524;51.380;13.372;2022-10-31T18:18:30;100871.09;;;13.60;100.00
68525;BME280;55524;51.380;13.372;2022-10-31T18:24:10;100866.31;;;13.47;100.00
68525;BME280;55524;51.380;13.372;2022-10-31T18:27:05;100866.63;;;13.40;100.00
68525;BME280;55524;51.380;13.372;2022-10-31T18:29:40;100864.00;;;13.38;100.00
68525;BME280;55524;51.380;13.372;2022-10-31T18:36:23;100866.41;;;13.24;100.00
68525;BME280;55524;51.380;13.372;2022-10-31T18:42:14;100855.78;;;13.22;100.00
68525;BME280;55524;51.380;13.372;2022-10-31T18:47:52;100848.22;;;13.13;100.00
68525;BME280;55524;51.380;13.372;2022-10-31T18:50:22;100841.13;;;13.14;100.00